createdAt,value
2018-09-15T00:01:03.769Z,99194.77
2018-09-15T00:03:32.083Z,99202.87
2018-09-15T00:06:00.417Z,99203.44
2018-09-15T00:08:28.925Z,99200.48
2018-09-15T00:10:57.250Z,99211.47
2018-09-15T00:13:25.615Z,99212.38
2018-09-15T00:15:54.011Z,99203.55
2018-09-15T00:18:22.348Z,99204.05
2018-09-15T00:20:50.862Z,99206.23
2018-09-15T00:23:19.233Z,99199.73
2018-09-15T00:25:47.563Z,99214.15
2018-09-15T00:28:16.036Z,99207.86
2018-09-15T00:30:44.332Z,99209.72
2018-09-15T00:33:12.665Z,99203.22
2018-09-15T00:35:41.000Z,99204.08
2018-09-15T00:38:09.385Z,99212.17
2018-09-15T00:40:37.825Z,99215.43
2018-09-15T00:43:06.167Z,99220.34
2018-09-15T00:45:34.523Z,99225.74
2018-09-15T00:48:03.728Z,99224.80
2018-09-15T00:50:32.059Z,99221.55
2018-09-15T00:53:00.719Z,99219.29
2018-09-15T00:55:29.107Z,99216.41
2018-09-15T00:57:57.437Z,99221.24
2018-09-15T01:00:25.790Z,99220.48
2018-09-15T01:02:54.408Z,99223.16
2018-09-15T01:05:22.703Z,99223.89
2018-09-15T01:07:51.000Z,99226.48
2018-09-15T01:10:19.336Z,99220.92
2018-09-15T01:12:47.658Z,99218.73
2018-09-15T01:15:15.970Z,99222.39
2018-09-15T01:17:44.279Z,99234.55
2018-09-15T01:20:12.819Z,99238.05
2018-09-15T01:22:41.051Z,99233.20
2018-09-15T01:25:09.380Z,99237.52
2018-09-15T01:27:37.771Z,99231.78
2018-09-15T01:30:06.158Z,99234.45
2018-09-15T01:32:34.439Z,99230.91
2018-09-15T01:35:02.810Z,99233.06
2018-09-15T01:37:31.242Z,99223.63
2018-09-15T01:39:59.641Z,99245.75
2018-09-15T01:42:27.953Z,99247.14
2018-09-15T01:44:56.288Z,99246.92
2018-09-15T01:47:24.640Z,99247.66
2018-09-15T01:49:52.954Z,99256.63
2018-09-15T01:52:21.315Z,99254.45
2018-09-15T01:54:49.668Z,99250.66
2018-09-15T01:57:17.979Z,99256.67
2018-09-15T01:59:46.331Z,99253.73
2018-09-15T02:02:14.842Z,99255.64
2018-09-15T02:04:43.211Z,99265.73
2018-09-15T02:07:11.549Z,99258.28
2018-09-15T02:09:39.906Z,99260.06
2018-09-15T02:12:08.193Z,99257.04
2018-09-15T02:14:36.547Z,99251.08
2018-09-15T02:17:04.861Z,99258.38
2018-09-15T02:19:33.274Z,99250.53
2018-09-15T02:22:01.725Z,99255.19
2018-09-15T02:24:30.066Z,99263.45
2018-09-15T02:26:58.445Z,99260.66
2018-09-15T02:29:26.750Z,99266.71
2018-09-15T02:31:55.052Z,99258.30
2018-09-15T02:34:23.394Z,99261.05
2018-09-15T02:36:51.703Z,99261.05
2018-09-15T02:39:20.019Z,99268.66
2018-09-15T02:41:48.359Z,99268.27
2018-09-15T02:44:16.690Z,99263.55
2018-09-15T02:46:45.010Z,99275.23
2018-09-15T02:49:13.324Z,99266.69
2018-09-15T02:51:41.682Z,99273.54
2018-09-15T02:54:10.045Z,99274.48
2018-09-15T02:56:38.419Z,99267.16
2018-09-15T02:59:06.736Z,99270.03
2018-09-15T03:01:35.253Z,99269.37
2018-09-15T03:04:03.644Z,99271.43
2018-09-15T03:06:32.082Z,99267.78
2018-09-15T03:09:00.379Z,99270.55
2018-09-15T03:11:28.753Z,99267.81
2018-09-15T03:13:57.046Z,99262.43
2018-09-15T03:16:25.346Z,99259.14
2018-09-15T03:18:53.837Z,99263.38
2018-09-15T03:21:22.177Z,99260.84
2018-09-15T03:23:50.475Z,99261.33
2018-09-15T03:26:18.834Z,99258.75
2018-09-15T03:28:47.130Z,99260.70
2018-09-15T03:31:15.474Z,99258.47
2018-09-15T03:33:43.781Z,99252.89
2018-09-15T03:36:12.331Z,99266.59
2018-09-15T03:38:40.626Z,99260.89
2018-09-15T03:41:08.978Z,99274.12
2018-09-15T03:43:37.336Z,99282.48
2018-09-15T03:46:05.762Z,99280.31
2018-09-15T03:48:34.089Z,99281.65
2018-09-15T03:51:02.451Z,99285.29
2018-09-15T03:53:30.734Z,99287.58
2018-09-15T03:55:59.212Z,99285.88
2018-09-15T03:58:27.478Z,99286.56
2018-09-15T04:00:55.789Z,99286.65
2018-09-15T04:03:24.476Z,99281.23
2018-09-15T04:05:52.834Z,99297.44
2018-09-15T04:08:21.407Z,99288.97
2018-09-15T04:10:49.741Z,99297.32
2018-09-15T04:13:18.068Z,99292.55
2018-09-15T04:15:46.371Z,99288.32
2018-09-15T04:18:16.045Z,99284.48
2018-09-15T04:20:45.647Z,99287.74
2018-09-15T04:23:14.736Z,99285.61
2018-09-15T04:25:43.534Z,99287.51
2018-09-15T04:28:11.974Z,99289.56
2018-09-15T04:30:40.590Z,99289.47
2018-09-15T04:33:09.179Z,99289.11
2018-09-15T04:35:37.503Z,99286.99
2018-09-15T04:38:06.303Z,99276.66
2018-09-15T04:40:34.736Z,99286.45
2018-09-15T04:43:03.050Z,99275.84
2018-09-15T04:45:31.442Z,99285.18
2018-09-15T04:47:59.804Z,99290.17
2018-09-15T04:50:28.084Z,99292.49
2018-09-15T04:52:56.442Z,99298.14
2018-09-15T04:55:24.708Z,99292.98
2018-09-15T04:57:53.122Z,99295.30
2018-09-15T05:00:21.443Z,99306.36
2018-09-15T05:02:50.015Z,99315.00
2018-09-15T05:05:25.060Z,99310.61
2018-09-15T05:07:53.647Z,99314.25
2018-09-15T05:10:22.051Z,99318.28
2018-09-15T05:12:50.533Z,99321.78
2018-09-15T05:15:18.851Z,99327.11
2018-09-15T05:17:47.199Z,99325.95
2018-09-15T05:20:15.549Z,99328.05
2018-09-15T05:22:43.910Z,99319.46
2018-09-15T05:25:12.278Z,99326.17
2018-09-15T05:27:40.667Z,99327.27
2018-09-15T05:30:09.516Z,99338.53
2018-09-15T05:32:37.959Z,99326.31
2018-09-15T05:35:06.434Z,99328.41
2018-09-15T05:37:34.817Z,99334.11
2018-09-15T05:40:03.261Z,99332.81
2018-09-15T05:42:31.516Z,99340.47
2018-09-15T05:44:59.887Z,99338.28
2018-09-15T05:47:28.250Z,99341.28
2018-09-15T05:49:56.547Z,99346.98
2018-09-15T05:52:24.947Z,99348.61
2018-09-15T05:54:53.710Z,99344.27
2018-09-15T05:57:22.091Z,99351.08
2018-09-15T05:59:50.437Z,99356.61
2018-09-15T06:02:18.773Z,99351.25
2018-09-15T06:04:47.163Z,99358.47
2018-09-15T06:07:15.494Z,99357.62
2018-09-15T06:09:43.835Z,99365.17
2018-09-15T06:12:12.158Z,99370.95
2018-09-15T06:14:40.546Z,99372.78
2018-09-15T06:17:09.347Z,99368.34
2018-09-15T06:19:37.827Z,99375.20
2018-09-15T06:22:06.278Z,99374.55
2018-09-15T06:24:34.612Z,99378.77
2018-09-15T06:27:02.958Z,99378.56
2018-09-15T06:29:31.285Z,99381.59
2018-09-15T06:32:01.520Z,99385.55
2018-09-15T06:34:29.854Z,99384.06
2018-09-15T06:36:58.155Z,99382.94
2018-09-15T06:39:26.577Z,99388.50
2018-09-15T06:41:54.945Z,99394.70
2018-09-15T06:44:23.254Z,99395.20
2018-09-15T06:46:51.554Z,99400.52
2018-09-15T06:49:19.956Z,99399.13
2018-09-15T06:51:48.276Z,99397.30
2018-09-15T06:54:21.746Z,99409.22
2018-09-15T06:56:50.087Z,99407.45
2018-09-15T06:59:18.579Z,99408.86
2018-09-15T07:01:46.873Z,99409.28
2018-09-15T07:04:15.198Z,99413.86
2018-09-15T07:06:43.556Z,99419.73
2018-09-15T07:09:14.053Z,99422.34
2018-09-15T07:11:42.382Z,99421.14
2018-09-15T07:14:11.476Z,99424.26
2018-09-15T07:16:40.143Z,99424.61
2018-09-15T07:19:08.563Z,99422.33
2018-09-15T07:21:36.891Z,99426.95
2018-09-15T07:24:05.281Z,99425.66
2018-09-15T07:26:33.617Z,99427.29
2018-09-15T07:29:02.103Z,99434.40
2018-09-15T07:31:30.453Z,99432.55
2018-09-15T07:33:58.814Z,99429.77
2018-09-15T07:36:27.110Z,99425.67
2018-09-15T07:38:55.532Z,99430.36
2018-09-15T07:41:24.116Z,99430.02
2018-09-15T07:43:52.450Z,99427.78
2018-09-15T07:46:20.878Z,99441.17
2018-09-15T07:48:49.286Z,99433.88
2018-09-15T07:51:17.587Z,99442.67
2018-09-15T07:53:45.966Z,99432.68
2018-09-15T07:56:14.246Z,99433.62
2018-09-15T07:58:42.631Z,99436.23
2018-09-15T08:01:10.986Z,99436.34
2018-09-15T08:03:39.300Z,99435.78
2018-09-15T08:06:07.611Z,99437.51
2018-09-15T08:08:35.900Z,99441.86
2018-09-15T08:11:04.261Z,99441.95
2018-09-15T08:13:32.560Z,99437.66
2018-09-15T08:16:00.879Z,99440.94
2018-09-15T08:18:29.248Z,99440.59
2018-09-15T08:20:57.571Z,99439.84
2018-09-15T08:23:25.882Z,99448.33
2018-09-15T08:25:54.265Z,99436.39
2018-09-15T08:28:22.615Z,99449.66
2018-09-15T08:30:50.938Z,99448.87
2018-09-15T08:33:19.299Z,99448.49
2018-09-15T08:35:47.639Z,99444.13
2018-09-15T08:38:15.961Z,99444.07
2018-09-15T08:40:44.394Z,99441.38
2018-09-15T08:43:12.723Z,99440.70
2018-09-15T08:45:42.239Z,99453.40
2018-09-15T08:48:10.634Z,99449.22
2018-09-15T08:50:39.418Z,99454.49
2018-09-15T08:53:07.789Z,99458.80
2018-09-15T08:55:36.128Z,99460.84
2018-09-15T08:58:04.517Z,99464.28
2018-09-15T09:00:32.838Z,99461.41
2018-09-15T09:03:01.163Z,99464.45
2018-09-15T09:05:29.459Z,99466.13
2018-09-15T09:07:57.867Z,99462.52
2018-09-15T09:10:26.273Z,99462.02
2018-09-15T09:12:54.522Z,99461.05
2018-09-15T09:15:22.866Z,99459.97
2018-09-15T09:17:51.173Z,99468.68
2018-09-15T09:20:19.520Z,99461.73
2018-09-15T09:22:47.841Z,99460.71
2018-09-15T09:25:16.351Z,99465.47
2018-09-15T09:27:44.667Z,99467.31
2018-09-15T09:30:13.054Z,99461.84
2018-09-15T09:32:41.387Z,99463.26
2018-09-15T09:35:09.756Z,99467.25
2018-09-15T09:37:38.228Z,99456.11
2018-09-15T09:40:06.698Z,99457.88
2018-09-15T09:42:35.010Z,99459.64
2018-09-15T09:45:03.359Z,99455.22
2018-09-15T09:47:31.720Z,99468.20
2018-09-15T09:50:00.105Z,99458.43
2018-09-15T09:52:28.459Z,99462.54
2018-09-15T09:54:56.921Z,99468.21
2018-09-15T09:57:25.268Z,99466.39
2018-09-15T09:59:53.641Z,99472.47
2018-09-15T10:02:24.857Z,99473.70
2018-09-15T10:04:53.532Z,99467.70
2018-09-15T10:07:21.864Z,99469.63
2018-09-15T10:09:50.195Z,99471.17
2018-09-15T10:12:18.487Z,99469.13
2018-09-15T10:14:46.798Z,99477.43
2018-09-15T10:17:15.090Z,99481.13
2018-09-15T10:19:43.478Z,99476.74
2018-09-15T10:22:11.956Z,99478.08
2018-09-15T10:24:40.417Z,99470.81
2018-09-15T10:27:08.744Z,99468.14
2018-09-15T10:29:37.036Z,99465.08
2018-09-15T10:32:05.437Z,99475.88
2018-09-15T10:34:33.742Z,99460.72
2018-09-15T10:37:02.273Z,99468.44
2018-09-15T10:39:30.558Z,99471.85
2018-09-15T10:41:58.934Z,99462.70
2018-09-15T10:44:27.331Z,99461.03
2018-09-15T10:46:55.653Z,99461.73
2018-09-15T10:49:23.943Z,99462.55
2018-09-15T10:51:52.248Z,99468.47
2018-09-15T10:54:20.658Z,99474.87
2018-09-15T10:56:49.176Z,99459.34
2018-09-15T10:59:17.507Z,99462.02
2018-09-15T11:01:45.854Z,99452.58
2018-09-15T11:04:14.137Z,99458.39
2018-09-15T11:06:42.490Z,99469.69
2018-09-15T11:09:11.415Z,99459.89
2018-09-15T11:11:39.790Z,99449.98
2018-09-15T11:14:08.075Z,99454.98
2018-09-15T11:16:36.490Z,99465.94
2018-09-15T11:19:04.963Z,99462.98
2018-09-15T11:21:33.327Z,99461.11
2018-09-15T11:24:02.470Z,99473.44
2018-09-15T11:27:34.270Z,99466.66
2018-09-15T11:30:02.608Z,99470.41
2018-09-15T11:32:31.047Z,99471.25
2018-09-15T11:34:59.415Z,99475.52
2018-09-15T11:37:27.749Z,99481.63
2018-09-15T11:39:56.035Z,99489.77
2018-09-15T11:42:24.423Z,99478.93
2018-09-15T11:44:52.723Z,99482.95
2018-09-15T11:47:21.451Z,99483.44
2018-09-15T11:49:49.841Z,99478.72
2018-09-15T11:52:18.387Z,99474.51
2018-09-15T11:54:46.786Z,99467.55
2018-09-15T11:57:15.435Z,99477.19
2018-09-15T11:59:44.050Z,99471.98
2018-09-15T12:02:12.758Z,99466.98
2018-09-15T12:04:41.511Z,99470.20
2018-09-15T12:07:09.886Z,99469.87
2018-09-15T12:09:38.605Z,99477.19
2018-09-15T12:12:07.327Z,99473.58
2018-09-15T12:14:50.073Z,99472.88
2018-09-15T12:17:18.548Z,99471.02
2018-09-15T12:19:47.084Z,99476.91
2018-09-15T12:22:15.411Z,99477.09
2018-09-15T12:24:43.716Z,99473.05
2018-09-15T12:27:12.024Z,99469.72
2018-09-15T12:29:40.304Z,99470.71
2018-09-15T12:32:08.732Z,99476.38
2018-09-15T12:34:37.066Z,99473.72
2018-09-15T12:37:05.451Z,99472.70
2018-09-15T12:39:33.826Z,99468.52
2018-09-15T12:42:02.087Z,99476.03
2018-09-15T12:44:30.368Z,99465.14
2018-09-15T12:46:58.715Z,99463.04
2018-09-15T12:49:27.022Z,99467.15
2018-09-15T12:51:55.348Z,99470.50
2018-09-15T12:54:23.763Z,99466.44
2018-09-15T12:56:52.104Z,99471.80
2018-09-15T12:59:20.422Z,99483.64
2018-09-15T13:01:48.753Z,99481.78
2018-09-15T13:04:17.079Z,99478.91
2018-09-15T13:06:45.385Z,99477.11
2018-09-15T13:09:13.955Z,99472.52
2018-09-15T13:11:42.292Z,99473.92
2018-09-15T13:14:10.660Z,99472.75
2018-09-15T13:16:39.278Z,99473.69
2018-09-15T13:19:07.651Z,99468.41
2018-09-15T13:21:35.937Z,99470.62
2018-09-15T13:24:04.297Z,99465.28
2018-09-15T13:26:32.657Z,99465.22
2018-09-15T13:29:01.015Z,99469.03
2018-09-15T13:31:29.323Z,99461.47
2018-09-15T13:33:57.614Z,99470.27
2018-09-15T13:36:25.907Z,99464.16
2018-09-15T13:38:55.225Z,99467.57
2018-09-15T13:41:23.611Z,99470.08
2018-09-15T13:43:51.939Z,99470.92
2018-09-15T13:46:20.223Z,99480.67
2018-09-15T13:48:48.527Z,99475.61
2018-09-15T13:51:16.835Z,99481.61
2018-09-15T13:53:45.167Z,99473.78
2018-09-15T13:56:13.466Z,99474.47
2018-09-15T13:58:41.856Z,99476.05
2018-09-15T14:01:10.261Z,99466.83
2018-09-15T14:03:38.598Z,99469.71
2018-09-15T14:06:06.986Z,99478.27
2018-09-15T14:08:35.430Z,99479.80
2018-09-15T14:11:03.729Z,99481.77
2018-09-15T14:13:32.263Z,99487.73
2018-09-15T14:16:00.824Z,99486.44
2018-09-15T14:18:29.156Z,99485.25
2018-09-15T14:20:57.477Z,99481.48
2018-09-15T14:23:25.963Z,99481.45
2018-09-15T14:25:54.346Z,99486.06
2018-09-15T14:28:22.712Z,99485.94
2018-09-15T14:30:51.050Z,99487.66
2018-09-15T14:33:19.544Z,99487.83
2018-09-15T14:35:47.838Z,99480.44
2018-09-15T14:38:16.168Z,99483.44
2018-09-15T14:40:44.569Z,99484.10
2018-09-15T14:43:12.926Z,99492.08
2018-09-15T14:45:41.346Z,99488.32
2018-09-15T14:48:09.742Z,99500.00
2018-09-15T14:50:38.069Z,99494.19
2018-09-15T14:53:06.395Z,99500.16
2018-09-15T14:55:34.817Z,99495.14
2018-09-15T14:58:03.138Z,99499.48
2018-09-15T15:00:31.558Z,99499.14
2018-09-15T15:03:02.489Z,99500.52
2018-09-15T15:05:30.877Z,99488.19
2018-09-15T15:07:59.215Z,99486.66
2018-09-15T15:10:27.544Z,99473.13
2018-09-15T15:12:55.832Z,99478.07
2018-09-15T15:15:24.253Z,99492.09
2018-09-15T15:17:52.591Z,99488.56
2018-09-15T15:20:21.034Z,99498.84
2018-09-15T15:22:49.471Z,99502.94
2018-09-15T15:25:17.944Z,99500.88
2018-09-15T15:27:46.330Z,99507.66
2018-09-15T15:30:14.739Z,99503.59
2018-09-15T15:32:43.149Z,99505.11
2018-09-15T15:35:12.733Z,99502.58
2018-09-15T15:37:41.269Z,99505.97
2018-09-15T15:40:09.784Z,99513.54
2018-09-15T15:42:38.116Z,99519.48
2018-09-15T15:45:06.511Z,99516.78
2018-09-15T15:47:34.937Z,99513.73
2018-09-15T15:50:03.371Z,99513.75
2018-09-15T15:52:31.771Z,99519.48
2018-09-15T15:55:00.195Z,99528.95
2018-09-15T15:57:28.693Z,99525.56
2018-09-15T15:59:57.115Z,99513.92
2018-09-15T16:02:25.720Z,99513.42
2018-09-15T16:04:54.098Z,99516.44
2018-09-15T16:07:22.533Z,99518.48
2018-09-15T16:09:50.957Z,99521.19
2018-09-15T16:12:19.407Z,99520.84
2018-09-15T16:14:48.651Z,99516.58
2018-09-15T16:17:17.186Z,99522.53
2018-09-15T16:19:45.651Z,99527.40
2018-09-15T16:22:14.848Z,99532.29
2018-09-15T16:24:43.219Z,99528.57
2018-09-15T16:27:11.728Z,99530.78
2018-09-15T16:29:40.054Z,99529.42
2018-09-15T16:32:08.659Z,99534.98
2018-09-15T16:34:37.349Z,99532.64
2018-09-15T16:37:05.903Z,99538.70
2018-09-15T16:39:34.305Z,99527.06
2018-09-15T16:42:02.646Z,99527.22
2018-09-15T16:44:31.175Z,99528.89
2018-09-15T16:46:59.613Z,99536.31
2018-09-15T16:49:28.075Z,99535.47
2018-09-15T16:51:56.449Z,99532.29
2018-09-15T16:54:24.777Z,99537.02
2018-09-15T16:56:53.189Z,99534.97
2018-09-15T16:59:21.501Z,99531.25
2018-09-15T17:01:50.028Z,99532.73
2018-09-15T17:04:18.447Z,99531.72
2018-09-15T17:06:46.770Z,99534.59
2018-09-15T17:09:15.118Z,99532.19
2018-09-15T17:11:43.453Z,99529.32
2018-09-15T17:14:11.964Z,99547.31
2018-09-15T17:16:40.380Z,99544.28
2018-09-15T17:19:08.745Z,99541.75
2018-09-15T17:21:37.055Z,99542.13
2018-09-15T17:24:05.423Z,99550.34
2018-09-15T17:26:34.775Z,99547.81
2018-09-15T17:29:03.122Z,99558.11
2018-09-15T17:31:31.547Z,99561.03
2018-09-15T17:34:00.185Z,99562.38
2018-09-15T17:36:28.666Z,99566.86
2018-09-15T17:38:57.007Z,99568.94
2018-09-15T17:41:25.353Z,99566.92
2018-09-15T17:43:53.715Z,99574.44
2018-09-15T17:46:21.995Z,99572.64
2018-09-15T17:48:50.530Z,99575.97
2018-09-15T17:51:18.855Z,99579.48
2018-09-15T17:53:47.226Z,99583.55
2018-09-15T17:56:15.586Z,99580.02
2018-09-15T17:58:43.909Z,99590.10
2018-09-15T18:01:12.384Z,99592.63
2018-09-15T18:03:40.812Z,99589.56
2018-09-15T18:06:09.242Z,99592.30
2018-09-15T18:08:37.619Z,99594.14
2018-09-15T18:11:06.148Z,99594.48
2018-09-15T18:13:34.493Z,99596.18
2018-09-15T18:16:02.944Z,99596.25
2018-09-15T18:18:31.393Z,99597.09
2018-09-15T18:20:59.741Z,99596.48
2018-09-15T18:23:28.072Z,99604.20
2018-09-15T18:25:56.430Z,99603.84
2018-09-15T18:28:24.794Z,99610.23
2018-09-15T18:30:53.145Z,99608.89
2018-09-15T18:33:21.491Z,99605.16
2018-09-15T18:35:49.834Z,99611.47
2018-09-15T18:38:18.119Z,99607.14
2018-09-15T18:40:46.469Z,99607.86
2018-09-15T18:43:14.955Z,99608.98
2018-09-15T18:45:43.310Z,99611.19
2018-09-15T18:48:11.747Z,99608.55
2018-09-15T18:50:40.658Z,99605.40
2018-09-15T18:53:08.961Z,99603.36
2018-09-15T18:55:37.301Z,99605.88
2018-09-15T18:58:05.846Z,99610.92
2018-09-15T19:00:34.476Z,99612.18
2018-09-15T19:03:02.740Z,99610.45
2018-09-15T19:05:31.235Z,99616.71
2018-09-15T19:07:59.555Z,99623.72
2018-09-15T19:10:27.969Z,99611.84
2018-09-15T19:12:56.306Z,99620.03
2018-09-15T19:15:24.686Z,99625.02
2018-09-15T19:17:53.223Z,99630.09
2018-09-15T19:20:21.565Z,99629.59
2018-09-15T19:22:49.886Z,99628.41
2018-09-15T19:25:18.203Z,99630.16
2018-09-15T19:27:46.474Z,99637.11
2018-09-15T19:30:14.830Z,99634.98
2018-09-15T19:32:43.183Z,99637.75
2018-09-15T19:35:11.586Z,99644.36
2018-09-15T19:37:40.028Z,99650.14
2018-09-15T19:40:08.470Z,99649.08
2018-09-15T19:42:36.808Z,99652.67
2018-09-15T19:45:05.315Z,99652.61
2018-09-15T19:47:33.659Z,99653.05
2018-09-15T19:50:02.128Z,99653.54
2018-09-15T19:52:30.644Z,99655.52
2018-09-15T19:54:58.969Z,99655.03
2018-09-15T19:57:27.328Z,99655.23
2018-09-15T19:59:55.686Z,99654.72
2018-09-15T20:02:24.048Z,99656.00
2018-09-15T20:04:52.515Z,99655.97
2018-09-15T20:07:20.868Z,99652.67
2018-09-15T20:09:49.212Z,99652.08
2018-09-15T20:12:17.638Z,99665.33
2018-09-15T20:14:46.202Z,99662.22
2018-09-15T20:17:13.401Z,99662.78
2018-09-15T20:19:40.712Z,99669.45
2018-09-15T20:22:09.094Z,99665.95
2018-09-15T20:24:37.415Z,99666.81
2018-09-15T20:27:05.785Z,99666.59
2018-09-15T20:29:34.239Z,99667.59
2018-09-15T20:32:02.610Z,99677.09
2018-09-15T20:34:30.970Z,99672.64
2018-09-15T20:36:59.318Z,99679.84
2018-09-15T20:39:27.665Z,99678.70
2018-09-15T20:41:56.027Z,99680.36
2018-09-15T20:44:24.360Z,99673.87
2018-09-15T20:46:52.674Z,99681.41
2018-09-15T20:49:20.996Z,99683.17
2018-09-15T20:51:49.304Z,99681.13
2018-09-15T20:54:17.655Z,99685.48
2018-09-15T20:56:46.087Z,99689.66
2018-09-15T20:59:14.422Z,99688.19
2018-09-15T21:01:42.806Z,99687.61
2018-09-15T21:04:11.210Z,99680.14
2018-09-15T21:06:41.043Z,99685.23
2018-09-15T21:09:11.106Z,99684.38
2018-09-15T21:11:39.710Z,99692.92
2018-09-15T21:14:08.790Z,99694.50
2018-09-15T21:16:37.286Z,99696.75
2018-09-15T21:19:06.471Z,99694.16
2018-09-15T21:21:35.136Z,99696.63
2018-09-15T21:24:03.530Z,99695.66
2018-09-15T21:26:31.858Z,99699.86
2018-09-15T21:29:00.231Z,99705.33
2018-09-15T21:31:31.747Z,99704.62
2018-09-15T21:34:00.078Z,99704.53
2018-09-15T21:36:28.471Z,99706.31
2018-09-15T21:38:56.855Z,99706.59
2018-09-15T21:41:25.327Z,99710.17
2018-09-15T21:43:53.787Z,99705.80
2018-09-15T21:46:22.113Z,99712.63
2018-09-15T21:48:50.494Z,99710.13
2018-09-15T21:51:18.823Z,99715.93
2018-09-15T21:53:47.290Z,99708.52
2018-09-15T21:56:15.607Z,99712.50
2018-09-15T21:58:44.157Z,99717.23
2018-09-15T22:01:12.504Z,99712.63
2018-09-15T22:03:45.966Z,99717.18
2018-09-15T22:06:14.314Z,99710.09
2018-09-15T22:08:42.664Z,99712.31
2018-09-15T22:11:10.974Z,99718.56
2018-09-15T22:13:39.356Z,99721.11
2018-09-15T22:16:07.718Z,99719.14
2018-09-15T22:18:36.057Z,99717.31
2018-09-15T22:21:04.381Z,99717.41
2018-09-15T22:23:32.694Z,99723.52
2018-09-15T22:26:01.008Z,99726.06
2018-09-15T22:28:29.372Z,99724.77
2018-09-15T22:30:57.750Z,99725.20
2018-09-15T22:33:26.103Z,99723.50
2018-09-15T22:35:54.457Z,99719.87
2018-09-15T22:38:22.758Z,99720.06
2018-09-15T22:40:51.116Z,99720.50
2018-09-15T22:43:19.643Z,99714.64
2018-09-15T22:45:48.002Z,99718.94
2018-09-15T22:48:16.291Z,99716.23
2018-09-15T22:50:44.770Z,99715.34
2018-09-15T22:53:13.082Z,99722.73
2018-09-15T22:55:41.530Z,99715.03
2018-09-15T22:58:09.862Z,99724.15
2018-09-15T23:00:38.283Z,99726.02
2018-09-15T23:03:06.656Z,99723.93
2018-09-15T23:05:35.039Z,99723.95
2018-09-15T23:08:03.434Z,99726.37
2018-09-15T23:10:31.771Z,99726.63
2018-09-15T23:13:00.155Z,99723.66
2018-09-15T23:15:28.501Z,99719.41
2018-09-15T23:17:56.820Z,99715.25
2018-09-15T23:20:25.288Z,99721.56
2018-09-15T23:22:58.051Z,99726.10
2018-09-15T23:25:26.463Z,99720.00
2018-09-15T23:27:54.789Z,99723.26
2018-09-15T23:30:23.167Z,99729.26
2018-09-15T23:32:51.497Z,99725.75
2018-09-15T23:35:19.919Z,99719.09
2018-09-15T23:37:48.298Z,99719.25
2018-09-15T23:40:16.694Z,99722.42
2018-09-15T23:42:45.014Z,99722.18
2018-09-15T23:45:13.372Z,99720.61
2018-09-15T23:47:41.746Z,99719.87
2018-09-15T23:50:10.175Z,99720.60
2018-09-15T23:52:38.539Z,99712.45
2018-09-15T23:55:07.030Z,99712.47
2018-09-15T23:57:35.341Z,99701.64
